createdAt,value
2022-08-03T00:00:27.317Z,14.20
2022-08-03T00:02:54.468Z,14.10
2022-08-03T00:05:21.798Z,14.10
2022-08-03T00:07:49.550Z,14.00
2022-08-03T00:10:17.247Z,13.90
2022-08-03T00:12:44.572Z,13.80
2022-08-03T00:15:16.655Z,13.80
2022-08-03T00:17:52.414Z,13.70
2022-08-03T00:20:21.677Z,13.60
2022-08-03T00:22:49.600Z,13.50
2022-08-03T00:25:17.235Z,13.40
2022-08-03T00:27:44.551Z,13.40
2022-08-03T00:30:11.964Z,13.40
2022-08-03T00:32:45.012Z,13.40
2022-08-03T00:35:28.061Z,13.30
2022-08-03T00:38:00.288Z,13.20
2022-08-03T00:40:27.856Z,13.20
2022-08-03T00:42:56.457Z,13.10
2022-08-03T00:45:25.207Z,12.90
2022-08-03T00:47:53.171Z,12.90
2022-08-03T00:50:23.122Z,12.90
2022-08-03T00:52:50.920Z,12.80
2022-08-03T00:55:18.251Z,12.80
2022-08-03T00:57:45.460Z,12.80
2022-08-03T01:00:14.140Z,12.70
2022-08-03T01:02:41.683Z,12.70
2022-08-03T01:05:09.408Z,12.60
2022-08-03T01:07:55.513Z,12.50
2022-08-03T01:10:32.648Z,12.50
2022-08-03T01:14:03.835Z,12.50
2022-08-03T01:16:19.728Z,12.50
2022-08-03T01:18:54.538Z,12.40
2022-08-03T01:21:47.870Z,12.30
2022-08-03T01:24:35.441Z,12.30
2022-08-03T01:27:05.638Z,12.20
2022-08-03T01:29:51.287Z,12.20
2022-08-03T01:32:54.552Z,12.20
2022-08-03T01:35:14.096Z,12.10
2022-08-03T01:37:48.150Z,12.20
2022-08-03T01:40:16.068Z,12.20
2022-08-03T01:42:43.802Z,12.20
2022-08-03T01:45:13.087Z,12.20
2022-08-03T01:47:41.188Z,12.20
2022-08-03T01:50:09.766Z,12.20
2022-08-03T01:52:38.210Z,12.30
2022-08-03T01:55:05.816Z,12.20
2022-08-03T01:57:34.214Z,12.20
2022-08-03T02:00:21.427Z,12.20
2022-08-03T02:02:50.885Z,12.20
2022-08-03T02:05:20.192Z,12.20
2022-08-03T02:07:48.337Z,12.20
2022-08-03T02:10:16.532Z,12.20
2022-08-03T02:13:02.741Z,12.20
2022-08-03T02:15:30.708Z,12.20
2022-08-03T02:17:58.781Z,12.10
2022-08-03T02:20:27.671Z,12.10
2022-08-03T02:22:54.989Z,12.10
2022-08-03T02:25:22.204Z,12.10
2022-08-03T02:27:53.045Z,12.00
2022-08-03T02:30:21.210Z,12.10
2022-08-03T02:32:55.931Z,12.10
2022-08-03T02:35:23.725Z,12.10
2022-08-03T02:37:52.539Z,12.20
2022-08-03T02:40:20.638Z,12.30
2022-08-03T02:42:50.244Z,12.20
2022-08-03T02:45:18.593Z,12.30
2022-08-03T02:47:53.926Z,12.20
2022-08-03T02:50:23.943Z,12.30
2022-08-03T02:52:52.077Z,12.30
2022-08-03T02:55:20.913Z,12.30
2022-08-03T02:57:48.656Z,12.40
2022-08-03T03:00:19.661Z,12.40
2022-08-03T03:02:58.442Z,12.40
2022-08-03T03:05:53.496Z,12.40
2022-08-03T03:08:18.058Z,12.40
2022-08-03T03:10:48.444Z,12.40
2022-08-03T03:13:22.269Z,12.40
2022-08-03T03:15:49.889Z,12.40
2022-08-03T03:18:21.871Z,12.40
2022-08-03T03:20:53.369Z,12.40
2022-08-03T03:23:24.437Z,12.50
2022-08-03T03:25:51.753Z,12.50
2022-08-03T03:28:19.040Z,12.60
2022-08-03T03:30:52.733Z,12.60
2022-08-03T03:33:21.903Z,12.70
2022-08-03T03:35:49.398Z,12.80
2022-08-03T03:38:16.669Z,12.90
2022-08-03T03:40:44.244Z,13.00
2022-08-03T03:43:13.060Z,13.10
2022-08-03T03:45:43.542Z,13.10
2022-08-03T03:48:11.344Z,13.20
2022-08-03T03:50:41.194Z,13.30
2022-08-03T03:53:12.277Z,13.40
2022-08-03T03:55:59.517Z,13.50
2022-08-03T03:58:27.742Z,13.60
2022-08-03T04:00:55.117Z,13.60
2022-08-03T04:03:22.315Z,13.70
2022-08-03T04:06:07.905Z,13.80
2022-08-03T04:08:53.285Z,13.80
2022-08-03T04:11:29.265Z,13.80
2022-08-03T04:14:02.044Z,13.80
2022-08-03T04:16:31.718Z,13.80
2022-08-03T04:19:06.367Z,13.80
2022-08-03T04:21:34.274Z,13.90
2022-08-03T04:24:03.869Z,14.00
2022-08-03T04:26:33.439Z,14.00
2022-08-03T04:29:01.228Z,14.00
2022-08-03T04:31:29.643Z,14.00
2022-08-03T04:33:57.348Z,13.90
2022-08-03T04:36:26.521Z,13.90
2022-08-03T04:38:53.605Z,13.90
2022-08-03T04:41:22.843Z,13.90
2022-08-03T04:43:51.651Z,13.80
2022-08-03T04:46:19.956Z,13.90
2022-08-03T04:48:47.091Z,13.80
2022-08-03T04:51:14.873Z,13.80
2022-08-03T04:53:43.332Z,13.80
2022-08-03T04:56:10.602Z,13.80
2022-08-03T04:58:37.858Z,13.90
2022-08-03T05:01:04.960Z,13.90
2022-08-03T05:03:32.445Z,14.00
2022-08-03T05:06:09.428Z,14.00
2022-08-03T05:08:46.503Z,14.10
2022-08-03T05:11:17.479Z,14.40
2022-08-03T05:13:45.314Z,14.50
2022-08-03T05:16:12.691Z,14.60
2022-08-03T05:18:39.949Z,14.80
2022-08-03T05:21:07.044Z,15.10
2022-08-03T05:23:34.181Z,15.20
2022-08-03T05:26:01.309Z,15.30
2022-08-03T05:28:28.450Z,15.50
2022-08-03T05:30:55.595Z,15.90
2022-08-03T05:33:22.817Z,16.60
2022-08-03T05:35:57.557Z,17.50
2022-08-03T05:38:34.199Z,18.40
2022-08-03T05:41:21.559Z,18.90
2022-08-03T05:43:51.248Z,19.20
2022-08-03T05:46:18.432Z,19.50
2022-08-03T05:48:45.504Z,19.90
2022-08-03T05:51:13.761Z,20.10
2022-08-03T05:53:41.923Z,20.60
2022-08-03T05:56:14.147Z,21.10
2022-08-03T05:58:47.466Z,21.00
2022-08-03T06:01:16.103Z,20.60
2022-08-03T06:03:43.539Z,20.40
2022-08-03T06:06:11.818Z,20.20
2022-08-03T06:08:39.533Z,19.90
2022-08-03T06:11:06.663Z,19.90
2022-08-03T06:13:33.785Z,19.80
2022-08-03T06:16:00.954Z,19.80
2022-08-03T06:18:28.305Z,19.80
2022-08-03T06:20:55.400Z,20.00
2022-08-03T06:23:25.316Z,20.00
2022-08-03T06:26:10.213Z,20.30
2022-08-03T06:28:52.156Z,20.50
2022-08-03T06:31:20.904Z,21.10
2022-08-03T06:34:30.151Z,21.40
2022-08-03T06:36:35.236Z,21.60
2022-08-03T06:39:02.489Z,21.50
2022-08-03T06:41:29.631Z,21.50
2022-08-03T06:44:04.714Z,21.60
2022-08-03T06:46:31.847Z,21.60
2022-08-03T06:48:58.908Z,21.60
2022-08-03T06:52:05.134Z,22.00
2022-08-03T06:54:13.378Z,22.20
2022-08-03T06:56:40.727Z,21.90
2022-08-03T06:59:07.776Z,21.40
2022-08-03T07:01:34.972Z,21.10
2022-08-03T07:04:02.162Z,21.20
2022-08-03T07:06:29.248Z,21.50
2022-08-03T07:08:59.517Z,21.70
2022-08-03T07:11:27.004Z,22.00
2022-08-03T07:13:54.144Z,22.00
2022-08-03T07:16:21.364Z,22.10
2022-08-03T07:18:48.815Z,22.10
2022-08-03T07:21:17.216Z,22.20
2022-08-03T07:23:44.404Z,22.10
2022-08-03T07:26:11.991Z,22.00
2022-08-03T07:28:39.105Z,22.00
2022-08-03T07:31:06.288Z,22.10
2022-08-03T07:33:33.407Z,22.20
2022-08-03T07:36:00.515Z,22.50
2022-08-03T07:38:27.861Z,22.40
2022-08-03T07:40:55.072Z,22.70
2022-08-03T07:43:22.280Z,22.40
2022-08-03T07:45:49.473Z,22.00
2022-08-03T07:48:16.535Z,22.00
2022-08-03T07:50:43.730Z,21.80
2022-08-03T07:53:10.901Z,21.60
2022-08-03T07:55:37.999Z,21.30
2022-08-03T07:58:10.164Z,21.30
2022-08-03T08:00:37.504Z,21.30
2022-08-03T08:03:05.213Z,21.80
2022-08-03T08:05:32.568Z,22.10
2022-08-03T08:08:00.361Z,22.30
2022-08-03T08:10:27.594Z,22.40
2022-08-03T08:12:54.937Z,22.30
2022-08-03T08:15:22.029Z,22.10
2022-08-03T08:17:51.000Z,21.90
2022-08-03T08:20:27.940Z,21.80
2022-08-03T08:23:01.645Z,21.70
2022-08-03T08:25:31.573Z,21.70
2022-08-03T08:28:31.803Z,21.50
2022-08-03T08:30:49.167Z,21.40
2022-08-03T08:33:23.491Z,21.20
2022-08-03T08:35:53.425Z,21.00
2022-08-03T08:38:20.705Z,20.80
2022-08-03T08:40:48.179Z,20.70
2022-08-03T08:43:15.335Z,20.70
2022-08-03T08:45:42.833Z,20.70
2022-08-03T08:48:10.972Z,20.70
2022-08-03T08:50:39.119Z,20.90
2022-08-03T08:53:09.683Z,20.90
2022-08-03T08:55:59.305Z,21.60
2022-08-03T08:58:26.640Z,22.90
2022-08-03T09:00:54.277Z,23.80
2022-08-03T09:03:29.668Z,24.10
2022-08-03T09:05:59.318Z,23.80
2022-08-03T09:10:54.073Z,25.90
2022-08-03T09:13:21.530Z,25.90
2022-08-03T09:15:52.716Z,25.90
2022-08-03T09:18:32.924Z,25.70
2022-08-03T09:21:31.266Z,25.10
2022-08-03T09:24:03.216Z,24.70
2022-08-03T09:26:33.498Z,24.80
2022-08-03T09:29:06.943Z,25.00
2022-08-03T09:31:44.042Z,24.80
2022-08-03T09:34:14.471Z,24.70
2022-08-03T09:36:51.805Z,24.20
2022-08-03T09:39:30.099Z,24.00
2022-08-03T09:42:11.652Z,24.00
2022-08-03T09:44:45.356Z,24.60
2022-08-03T09:47:15.327Z,24.90
2022-08-03T09:49:56.881Z,25.00
2022-08-03T09:52:49.404Z,25.30
2022-08-03T09:56:05.094Z,25.30
2022-08-03T09:58:11.348Z,25.40
2022-08-03T10:00:56.394Z,25.70
2022-08-03T10:03:26.171Z,25.90
2022-08-03T10:05:58.969Z,25.70
2022-08-03T10:08:28.045Z,25.10
2022-08-03T10:10:55.464Z,25.00
2022-08-03T10:13:23.687Z,25.30
2022-08-03T10:16:21.761Z,25.40
2022-08-03T10:18:38.884Z,25.40
2022-08-03T10:21:10.847Z,25.20
2022-08-03T10:23:40.082Z,24.80
2022-08-03T10:26:08.670Z,24.70
2022-08-03T10:28:52.727Z,24.60
2022-08-03T10:31:22.552Z,24.80
2022-08-03T10:33:53.206Z,25.30
2022-08-03T10:36:27.362Z,25.70
2022-08-03T10:38:57.325Z,25.80
2022-08-03T10:41:34.676Z,25.80
2022-08-03T10:44:14.717Z,25.20
2022-08-03T10:46:45.212Z,25.60
2022-08-03T10:49:33.835Z,25.60
2022-08-03T10:52:04.420Z,25.30
2022-08-03T10:55:07.425Z,25.50
2022-08-03T10:57:48.881Z,25.70
2022-08-03T11:00:25.423Z,25.60
2022-08-03T11:03:04.714Z,25.40
2022-08-03T11:05:34.244Z,25.20
2022-08-03T11:08:21.512Z,25.10
2022-08-03T11:10:50.576Z,25.80
2022-08-03T11:13:21.244Z,26.40
2022-08-03T11:15:51.166Z,27.80
2022-08-03T11:18:18.806Z,29.20
2022-08-03T11:20:47.938Z,30.30
2022-08-03T11:23:16.898Z,30.80
2022-08-03T11:26:10.153Z,31.30
2022-08-03T11:28:39.367Z,31.60
2022-08-03T11:31:51.438Z,31.60
2022-08-03T11:34:19.091Z,32.70
2022-08-03T11:37:22.524Z,32.60
2022-08-03T11:39:53.245Z,33.70
2022-08-03T11:42:23.510Z,33.60
2022-08-03T11:44:58.826Z,33.10
2022-08-03T11:47:28.978Z,32.70
2022-08-03T11:50:02.319Z,32.90
2022-08-03T11:52:37.353Z,32.90
2022-08-03T11:55:10.231Z,33.60
2022-08-03T11:59:18.874Z,34.90
2022-08-03T12:00:26.171Z,34.20
2022-08-03T12:03:02.698Z,34.80
2022-08-03T12:05:41.201Z,35.40
2022-08-03T12:08:11.805Z,34.50
2022-08-03T12:10:41.549Z,35.00
2022-08-03T12:14:45.161Z,35.70
2022-08-03T12:15:57.917Z,35.30
2022-08-03T12:18:25.795Z,34.90
2022-08-03T12:21:04.391Z,34.40
2022-08-03T12:23:34.855Z,34.20
2022-08-03T12:26:08.178Z,34.30
2022-08-03T12:28:38.429Z,34.50
2022-08-03T12:31:09.783Z,35.50
2022-08-03T12:34:00.595Z,35.60
2022-08-03T12:36:28.924Z,35.30
2022-08-03T12:39:01.855Z,35.40
2022-08-03T12:41:41.011Z,36.20
2022-08-03T12:44:09.954Z,36.40
2022-08-03T12:46:38.205Z,37.50
2022-08-03T12:49:18.983Z,36.40
2022-08-03T12:51:46.342Z,37.10
2022-08-03T12:54:28.716Z,37.40
2022-08-03T12:57:07.503Z,36.70
2022-08-03T12:59:52.741Z,36.50
2022-08-03T13:02:24.876Z,35.30
2022-08-03T13:04:54.167Z,35.70
2022-08-03T13:07:22.303Z,33.60
2022-08-03T13:09:55.158Z,33.50
2022-08-03T13:12:27.588Z,34.40
2022-08-03T13:15:01.001Z,33.40
2022-08-03T13:17:28.453Z,35.30
2022-08-03T13:19:56.621Z,35.80
2022-08-03T13:22:25.956Z,35.90
2022-08-03T13:24:58.625Z,33.70
2022-08-03T13:28:03.388Z,32.80
2022-08-03T13:30:29.706Z,32.20
2022-08-03T13:33:00.767Z,31.60
2022-08-03T13:35:28.195Z,32.50
2022-08-03T13:37:55.532Z,32.30
2022-08-03T13:40:23.582Z,32.30
2022-08-03T13:42:57.305Z,33.10
2022-08-03T13:45:25.090Z,33.40
2022-08-03T13:47:52.487Z,32.70
2022-08-03T13:50:19.911Z,32.50
2022-08-03T13:52:47.863Z,33.50
2022-08-03T13:55:15.260Z,33.90
2022-08-03T13:58:06.254Z,34.60
2022-08-03T14:00:30.693Z,33.90
2022-08-03T14:03:15.303Z,33.40
2022-08-03T14:05:44.558Z,33.60
2022-08-03T14:08:12.834Z,33.50
2022-08-03T14:10:43.736Z,33.30
2022-08-03T14:13:16.671Z,33.40
2022-08-03T14:15:50.171Z,33.00
2022-08-03T14:18:28.996Z,33.90
2022-08-03T14:21:06.891Z,34.30
2022-08-03T14:23:35.868Z,34.80
2022-08-03T14:26:03.372Z,34.50
2022-08-03T14:28:30.677Z,34.00
2022-08-03T14:30:57.972Z,32.90
2022-08-03T14:33:25.695Z,32.10
2022-08-03T14:35:53.834Z,30.20
2022-08-03T14:38:21.724Z,28.80
2022-08-03T14:40:49.390Z,28.40
2022-08-03T14:43:26.344Z,27.80
2022-08-03T14:46:02.073Z,27.70
2022-08-03T14:50:28.954Z,27.40
2022-08-03T14:51:17.094Z,27.20
2022-08-03T14:53:44.481Z,26.90
2022-08-03T14:56:11.855Z,26.80
2022-08-03T14:58:39.509Z,26.80
2022-08-03T15:02:04.776Z,26.90
2022-08-03T15:03:55.192Z,27.00
2022-08-03T15:06:22.603Z,26.60
2022-08-03T15:09:20.871Z,26.60
2022-08-03T15:11:38.051Z,26.20
2022-08-03T15:14:09.164Z,26.20
2022-08-03T15:16:37.543Z,26.30
2022-08-03T15:20:04.060Z,26.30
2022-08-03T15:21:52.293Z,26.60
2022-08-03T15:24:19.612Z,26.70
2022-08-03T15:26:46.912Z,27.00
2022-08-03T15:30:09.064Z,27.20
2022-08-03T15:32:04.021Z,27.80
2022-08-03T15:34:34.636Z,29.20
2022-08-03T15:37:02.022Z,30.30
2022-08-03T15:39:29.556Z,31.50
2022-08-03T15:41:57.004Z,31.30
2022-08-03T15:44:24.364Z,30.90
2022-08-03T15:46:53.308Z,31.20
2022-08-03T15:49:20.895Z,30.90
2022-08-03T15:51:48.548Z,32.40
2022-08-03T15:54:15.954Z,32.20
2022-08-03T15:56:45.600Z,32.80
2022-08-03T16:11:56.405Z,34.80
2022-08-03T16:14:34.738Z,34.80
2022-08-03T16:17:06.520Z,34.90
2022-08-03T16:19:34.118Z,35.00
2022-08-03T16:22:03.161Z,34.60
2022-08-03T16:24:31.184Z,34.50
2022-08-03T16:27:00.702Z,34.00
2022-08-03T16:29:28.803Z,33.70
2022-08-03T16:31:56.363Z,32.60
2022-08-03T16:34:23.712Z,31.10
2022-08-03T16:36:51.402Z,29.60
2022-08-03T16:39:18.805Z,28.40
2022-08-03T16:41:54.030Z,27.40
2022-08-03T16:44:31.082Z,26.60
2022-08-03T16:46:59.278Z,25.70
2022-08-03T16:49:55.057Z,25.30
2022-08-03T16:52:18.006Z,24.70
2022-08-03T16:54:50.731Z,24.20
2022-08-03T16:57:56.052Z,23.80
2022-08-03T17:00:33.804Z,23.60
2022-08-03T17:03:00.562Z,23.40
2022-08-03T17:05:43.560Z,23.20
2022-08-03T17:08:14.441Z,23.10
2022-08-03T17:10:45.051Z,22.70
2022-08-03T17:13:22.090Z,22.70
2022-08-03T17:16:00.873Z,22.50
2022-08-03T17:18:33.017Z,22.30
2022-08-03T17:21:06.034Z,22.20
2022-08-03T17:23:46.486Z,22.00
2022-08-03T17:26:21.679Z,21.70
2022-08-03T17:28:58.276Z,21.70
2022-08-03T17:31:31.366Z,21.60
2022-08-03T17:34:01.760Z,21.60
2022-08-03T17:37:01.718Z,21.30
2022-08-03T17:39:30.868Z,21.30
2022-08-03T17:44:57.680Z,21.10
2022-08-03T17:47:29.284Z,21.10
2022-08-03T17:50:24.108Z,20.90
2022-08-03T17:53:23.878Z,20.60
2022-08-03T17:56:38.870Z,20.40
2022-08-03T17:59:52.240Z,20.10
2022-08-03T18:02:47.434Z,20.00
2022-08-03T18:05:18.293Z,19.80
2022-08-03T18:07:59.486Z,19.50
2022-08-03T18:10:32.292Z,19.60
2022-08-03T18:13:10.867Z,19.50
2022-08-03T18:15:51.741Z,19.40
2022-08-03T18:18:32.841Z,19.10
2022-08-03T18:21:06.784Z,18.90
2022-08-03T18:23:38.961Z,18.80
2022-08-03T18:26:10.763Z,18.80
2022-08-03T18:28:40.532Z,18.70
2022-08-03T18:31:11.970Z,18.60
2022-08-03T18:34:17.079Z,18.50
2022-08-03T18:36:31.136Z,18.40
2022-08-03T18:39:02.551Z,18.40
2022-08-03T18:41:32.283Z,18.30
2022-08-03T18:44:07.057Z,18.20
2022-08-03T18:46:54.929Z,18.10
2022-08-03T18:49:23.260Z,18.00
2022-08-03T18:51:58.700Z,17.90
2022-08-03T18:54:59.109Z,17.80
2022-08-03T18:58:02.499Z,17.70
2022-08-03T19:00:54.085Z,17.60
2022-08-03T19:03:42.937Z,17.50
2022-08-03T19:06:20.022Z,17.30
2022-08-03T19:09:03.419Z,17.20
2022-08-03T19:12:13.336Z,17.10
2022-08-03T19:14:54.611Z,17.10
2022-08-03T19:17:29.400Z,17.00
2022-08-03T19:19:58.785Z,16.90
2022-08-03T19:22:29.425Z,16.90
2022-08-03T19:25:04.186Z,16.90
2022-08-03T19:27:33.540Z,17.00
2022-08-03T19:30:11.891Z,17.00
2022-08-03T19:32:50.698Z,17.00
2022-08-03T19:35:19.264Z,16.90
2022-08-03T19:38:06.916Z,16.90
2022-08-03T19:40:37.907Z,16.70
2022-08-03T19:43:33.079Z,16.70
2022-08-03T19:46:19.550Z,16.60
2022-08-03T19:49:10.420Z,16.60
2022-08-03T19:52:01.313Z,16.50
2022-08-03T19:54:52.760Z,16.40
2022-08-03T19:57:24.905Z,16.50
2022-08-03T19:59:54.456Z,16.40
2022-08-03T20:02:25.993Z,16.30
2022-08-03T20:04:59.945Z,16.20
2022-08-03T20:07:31.416Z,16.10
2022-08-03T20:10:01.404Z,16.00
2022-08-03T20:12:32.152Z,16.00
2022-08-03T20:15:04.506Z,15.90
2022-08-03T20:17:56.748Z,15.90
2022-08-03T20:20:25.681Z,15.90
2022-08-03T20:22:57.533Z,16.00
2022-08-03T20:25:38.173Z,15.90
2022-08-03T20:28:27.444Z,15.80
2022-08-03T20:30:55.384Z,15.70
2022-08-03T20:33:27.654Z,15.70
2022-08-03T20:36:01.994Z,15.70
2022-08-03T20:38:29.606Z,15.70
2022-08-03T20:40:59.094Z,15.60
2022-08-03T20:43:26.720Z,15.60
2022-08-03T20:45:59.605Z,15.70
2022-08-03T20:48:43.714Z,15.80
2022-08-03T20:51:20.084Z,15.80
2022-08-03T20:53:59.549Z,15.60
2022-08-03T20:56:34.181Z,15.60
2022-08-03T20:59:07.336Z,15.60
2022-08-03T21:01:44.350Z,15.50
2022-08-03T21:04:13.478Z,15.60
2022-08-03T21:06:57.326Z,15.60
2022-08-03T21:09:33.516Z,15.60
2022-08-03T21:12:18.470Z,15.70
2022-08-03T21:12:54.738Z,21.20
2022-08-03T21:15:07.142Z,15.80
2022-08-03T21:17:40.842Z,15.70
2022-08-03T21:20:13.280Z,15.60
2022-08-03T21:22:46.776Z,15.60
2022-08-03T21:25:16.195Z,15.70
2022-08-03T21:27:43.507Z,15.50
2022-08-03T21:30:11.787Z,15.50
2022-08-03T21:32:40.723Z,15.40
2022-08-03T21:35:12.430Z,15.40
2022-08-03T21:37:41.268Z,15.30
2022-08-03T21:40:12.197Z,15.40
2022-08-03T21:42:40.975Z,15.40
2022-08-03T21:45:16.555Z,15.20
2022-08-03T21:47:45.859Z,15.20
2022-08-03T21:50:14.298Z,15.10
2022-08-03T21:52:47.812Z,15.00
2022-08-03T21:55:20.416Z,15.10
2022-08-03T21:57:53.149Z,15.10
2022-08-03T22:00:23.369Z,15.20
2022-08-03T22:02:57.441Z,15.30
2022-08-03T22:05:28.975Z,15.20
2022-08-03T22:08:11.261Z,15.20
2022-08-03T22:10:38.711Z,15.00
2022-08-03T22:13:06.258Z,15.00
2022-08-03T22:15:33.791Z,14.90
2022-08-03T22:18:03.769Z,14.90
2022-08-03T22:20:31.550Z,14.90
2022-08-03T22:23:03.077Z,14.80
2022-08-03T22:25:33.115Z,14.80
2022-08-03T22:28:04.280Z,14.80
2022-08-03T22:30:33.332Z,14.80
2022-08-03T22:33:03.919Z,14.80
2022-08-03T22:35:47.563Z,14.90
2022-08-03T22:38:17.934Z,14.80
2022-08-03T22:40:47.944Z,14.70
2022-08-03T22:43:15.369Z,14.60
2022-08-03T22:46:09.579Z,14.70
2022-08-03T22:48:40.919Z,14.70
2022-08-03T22:51:09.557Z,14.80
2022-08-03T22:53:40.433Z,14.70
2022-08-03T22:56:09.110Z,14.70
2022-08-03T22:58:36.561Z,14.70
2022-08-03T23:01:09.383Z,14.70
2022-08-03T23:04:00.083Z,14.60
2022-08-03T23:06:30.028Z,14.50
2022-08-03T23:08:57.698Z,14.50
2022-08-03T23:11:27.101Z,14.60
2022-08-03T23:13:59.333Z,14.60
2022-08-03T23:16:28.924Z,14.70
2022-08-03T23:18:59.762Z,14.70
2022-08-03T23:21:53.106Z,14.70
2022-08-03T23:24:29.357Z,14.70
2022-08-03T23:26:59.506Z,14.70
2022-08-03T23:29:29.568Z,14.70
2022-08-03T23:31:58.131Z,14.60
2022-08-03T23:34:45.328Z,14.60
2022-08-03T23:37:15.632Z,14.60
2022-08-03T23:39:46.606Z,14.50
2022-08-03T23:42:15.678Z,14.40
2022-08-03T23:44:46.678Z,14.50
2022-08-03T23:47:14.937Z,14.50
2022-08-03T23:49:42.514Z,14.50
2022-08-03T23:52:24.302Z,14.50
2022-08-03T23:55:26.821Z,14.40
2022-08-03T23:58:16.961Z,14.20
